This is the latest recevied weather packets stored in our database for station/object LA9UTA-13. If no packets are shown the sender has not sent any weather packets the latest 10 day(s).
| Time | Temp. | Humidity | Pressure | Rain* | Wind** | Luminosity | Snow |
|---|---|---|---|---|---|---|---|
| 1788295809 | 13.33° C | 89% | 1007.9 hPa | 0 mm | - | 0 W/m² | - |
| 1788293408 | 13.89° C | 87% | 1007.9 hPa | 0 mm | - | 0 W/m² | - |
| 1788287408 | 14.44° C | 86% | 1007.8 hPa | 0 mm | - | 1 W/m² | - |
| 1788286208 | 15° C | 84% | 1007.7 hPa | 0 mm | - | 9 W/m² | - |
| 1788285009 | 16.11° C | 81% | 1007.7 hPa | 0 mm | - | 22 W/m² | - |
| 1788283809 | 16.11° C | 79% | 1007.6 hPa | 0 mm | - | 30 W/m² | - |
| 1788282609 | 16.11° C | 79% | 1007.6 hPa | 0 mm | - | 39 W/m² | - |
| 1788281596 | 16.11° C | 80% | 1007.6 hPa | 0 mm | - | 43 W/m² | - |
| 1788280208 | 16.67° C | 78% | 1007.6 hPa | 0 mm | - | 59 W/m² | - |
| 1788279008 | 16.67° C | 77% | 1007.6 hPa | 0 mm | - | 78 W/m² | - |
| 1788276608 | 17.22° C | 74% | 1007.5 hPa | 0 mm | - | 125 W/m² | - |
| 1788274353 | 20.56° C | 66% | 1008.3 hPa | 0 mm | - | 284 W/m² | - |
| 1788271944 | 18.33° C | 76% | 1008.5 hPa | 0 mm | - | 121 W/m² | - |
| 1788271809 | 18.89° C | 73% | 1008.5 hPa | 0 mm | - | 204 W/m² | - |
| 1788270611 | 18.33° C | 76% | 1008.5 hPa | 0 mm | - | 121 W/m² | - |
| 1788268209 | 16.67° C | 78% | 1008.7 hPa | 0 mm | - | 112 W/m² | - |
| 1788264608 | 16.67° C | 78% | 1008.7 hPa | 0 mm | - | 152 W/m² | - |
| 1788263409 | 16.67° C | 77% | 1009.7 hPa | 0 mm | - | 466 W/m² | - |
| 1788262208 | 16.67° C | 76% | 1008.7 hPa | 0 mm | - | 500 W/m² | - |
| 1788261009 | 16.11° C | 78% | 1008.7 hPa | 0 mm | - | 552 W/m² | - |
| 1788259808 | 15.56° C | 80% | 1009.8 hPa | 0 mm | - | 279 W/m² | - |
| 1788259353 | 13.89° C | 92% | 1002.7 hPa | 0 mm | - | 21 W/m² | - |
| 1788257408 | 13.89° C | 85% | 1008.8 hPa | 0 mm | - | 195 W/m² | - |
| 1788256209 | 14.44° C | 85% | 1008.8 hPa | 0 mm | - | 140 W/m² | - |
| 1788255008 | 13.89° C | 85% | 1008.8 hPa | 0 mm | - | 168 W/m² | - |
* Rain latest hour (hover to see other rain measurements)
** Current wind speed in m/s (hover to see current wind gust speed)